Weather at Governador Aluízio Alves International Airport

Public forecast

Using degrees Celsius for public forecast. Weather courtesy of forecast.io.

Current aviation weather report (METAR) for Governador Aluízio Alves International Airport

Retrieved 2021/01/26 00:00 UTC (37 minutes ago):

SBSG 260000Z 17006KT 140V220 9999 SCT019 26/23 Q1012

Aviation forecast (TAF) for Governador Aluízio Alves International Airport

Forecast is more than 12 hours old.

Retrieved 2021/01/23 06:03 UTC (3 days ago):

TAF SBSG 230400Z 2306/2406 22005KT 8000 SCT020 TN23/2308Z TX30/2316Z BECMG 2311/2314 15015KT SCT025 FEW030TCU BECMG 2318/2321 17007KT SCT020 BECMG 2402/2405 22005KT RMK PHC